Date,TemperatureHighF,TemperatureAvgF,TemperatureLowF,DewpointHighF,DewpointAvgF,DewpointLowF,HumidityHigh,HumidityAvg,HumidityLow,PressureMaxIn,PressureMinIn,WindSpeedMaxMPH,WindSpeedAvgMPH,GustSpeedMaxMPH,PrecipitationSumIn
2014-1-1,35.1,26.6,16.0,31.0,20.7,14.0,95,79,53,30.48,30.11,13,2,0,0.01
2014-1-2,32.5,27.0,6.0,29.0,18.7,4.0,95,74,36,30.11,29.58,20,10,0,0.00
2014-1-3,15.1,3.1,-2.6,12.0,0.7,-5.0,92,89,73,30.53,29.67,31,9,0,0.00
2014-1-4,35.5,24.9,12.3,21.0,-2.2,-11.0,71,33,15,30.53,30.26,19,10,0,0.00
2014-1-5,41.0,36.7,30.4,37.0,31.9,20.0,94,83,62,30.26,29.60,23,10,0,0.01
2014-1-6,39.9,9.6,-16.6,34.0,6.6,-20.0,95,88,78,29.93,29.48,26,11,0,0.09
2014-1-7,-0.6,-10.5,-19.5,-4.0,-13.6,-23.0,89,86,83,30.64,29.94,27,13,0,0.00
2014-1-8,24.6,11.9,-2.3,18.0,6.1,-6.0,88,78,63,30.71,30.60,21,8,0,0.01
2014-1-9,38.2,26.7,19.4,20.0,14.8,10.0,75,62,39,30.62,30.44,18,8,0,0.00
2014-1-10,44.6,37.3,26.6,37.0,31.1,17.0,93,78,67,30.43,30.07,22,8,0,0.10
2014-1-11,48.5,42.3,27.4,41.0,36.8,25.0,94,81,74,30.06,29.39,31,15,0,0.28
2014-1-12,39.6,28.2,22.4,29.0,21.7,4.0,95,80,23,30.17,29.58,30,14,0,0.00
2014-1-13,49.6,41.9,33.8,33.0,15.1,-2.0,93,39,15,30.16,29.76,15,9,0,0.02
2014-1-14,36.2,32.2,28.3,31.0,27.7,23.0,95,84,77,29.91,29.69,16,8,0,0.08
2014-1-15,30.5,23.1,13.3,26.0,20.9,12.0,95,91,77,29.96,29.87,15,8,0,0.00
2014-1-16,23.7,15.6,7.1,20.0,12.0,5.0,94,86,65,30.04,29.94,15,7,0,0.00
2014-1-17,30.2,22.6,12.1,24.0,18.8,10.0,95,86,58,29.99,29.85,19,9,0,0.01
2014-1-18,11.6,3.0,2.1,10.0,-41.3,-99.9,92,51,88,30.05,29.80,27,-425,0,0.00
2014-1-19,-200.0,0.0,200.0,-99.9,-99.9,-99.9,0,0,100,30.05,29.47,0,-999,0,0.00
2014-1-20,-200.0,0.0,200.0,-99.9,-99.9,-99.9,0,0,100,29.56,29.42,0,-999,0,0.00
2014-1-21,-200.0,0.0,200.0,-99.9,-99.9,-99.9,0,0,100,29.53,29.27,0,-999,0,0.00
2014-1-22,-200.0,0.0,200.0,-99.9,-99.9,-99.9,0,0,100,29.49,29.36,0,-999,0,0.00
2014-1-23,-200.0,0.0,200.0,-99.9,-99.9,-99.9,0,0,100,29.84,29.47,0,-999,0,0.00
2014-1-24,-200.0,0.0,200.0,-99.9,-99.9,-99.9,0,0,100,29.89,29.52,0,-999,0,0.00
2014-1-25,-200.0,0.0,200.0,-99.9,-99.9,-99.9,0,0,100,29.51,29.04,0,-999,0,0.00
2014-1-26,-200.0,0.0,200.0,-99.9,-99.9,-99.9,0,0,100,29.38,29.26,0,-999,0,0.00
2014-1-31,33.5,28.2,28.0,25.0,16.3,-99.9,86,67,40,30.22,0.00,14,-19,0,0.00
2014-2-1,48.5,39.1,28.3,34.0,24.9,18.0,87,60,32,30.24,30.02,14,8,0,0.00
2014-2-2,44.0,40.9,36.4,38.0,34.1,29.0,93,77,58,30.02,29.93,25,12,0,0.09
2014-2-3,39.5,29.7,22.1,32.0,25.3,21.0,96,84,74,30.25,29.86,14,2,0,0.80
2014-2-4,29.8,25.9,22.8,26.0,23.8,21.0,94,91,85,30.39,30.26,0,0,0,0.02
2014-2-5,42.2,24.5,12.4,35.0,21.4,11.0,94,88,76,30.06,29.68,31,13,0,0.41
2014-2-6,17.5,12.8,9.6,16.0,11.2,8.0,94,93,92,30.41,30.07,15,4,0,0.00
2014-2-7,20.9,14.5,10.9,20.0,12.9,9.0,96,93,92,30.42,30.34,12,5,0,0.00
2014-2-8,25.6,21.4,15.9,24.0,20.1,15.0,95,94,93,30.39,30.17,14,5,0,0.00
2014-2-9,26.8,23.0,15.8,26.0,21.7,14.0,97,94,92,30.17,29.97,14,6,0,0.00
2014-2-10,18.2,11.8,5.0,17.0,10.1,3.0,95,92,89,30.35,30.06,9,3,0,0.00
2014-2-11,22.9,11.8,3.4,19.0,7.9,-1.0,95,85,66,30.49,30.33,6,2,0,0.01
2014-2-12,23.3,15.1,9.5,22.0,12.0,6.0,94,87,67,30.47,30.09,20,6,0,0.00
2014-2-13,27.5,22.5,17.0,27.0,21.2,16.0,97,94,92,30.08,29.56,31,13,0,0.00
2014-2-14,33.3,25.6,15.7,29.0,20.9,14.0,95,83,54,29.80,29.60,31,10,0,0.00
2014-2-15,28.1,17.0,8.3,26.0,15.1,7.0,94,92,90,30.04,29.59,29,8,0,0.00
2014-2-16,20.2,14.0,6.8,19.0,12.5,5.0,100,93,91,30.28,30.04,20,6,0,0.00
2014-2-17,26.0,17.0,7.9,24.0,14.3,6.0,96,89,72,30.43,30.16,23,6,0,0.00
2014-2-18,40.4,31.6,19.9,26.0,17.9,10.0,94,63,31,30.23,30.10,33,13,0,0.00
2014-2-19,44.7,39.2,31.7,40.0,28.4,-3.0,93,67,21,30.11,29.75,36,15,0,0.13
2014-2-20,46.5,40.4,32.8,43.0,28.8,-5.0,93,66,19,30.15,29.91,24,11,0,0.00
2014-2-21,47.8,38.0,26.8,46.0,29.1,15.0,94,72,43,29.98,29.71,30,14,0,0.28
2014-2-22,44.0,35.4,26.5,19.0,14.7,10.0,64,44,31,30.17,29.98,26,12,0,0.00
2014-2-23,50.9,39.4,27.0,29.0,22.1,15.0,95,53,35,30.07,29.89,20,7,0,0.00
2014-2-24,25.7,18.5,12.7,24.0,12.2,8.0,94,78,55,30.19,29.89,24,7,0,0.04
2014-2-25,17.3,15.1,13.0,15.0,11.2,8.0,93,85,71,30.16,30.06,19,6,0,0.00
2014-2-26,16.3,11.2,6.4,13.0,7.3,1.0,93,85,65,30.05,29.89,21,9,0,0.00
2014-2-27,18.3,9.3,2.4,7.0,1.2,-5.0,84,70,56,30.12,29.78,29,12,0,0.00
2014-2-28,30.2,16.7,1.2,12.0,0.1,-19.0,81,51,23,30.38,30.12,12,6,0,0.00
2014-3-1,38.8,32.0,21.5,32.0,20.3,9.0,84,63,46,30.34,30.19,27,11,0,0.00
2014-3-2,42.9,38.1,35.2,40.0,32.2,28.0,93,79,74,30.18,29.88,24,13,0,0.22
2014-3-3,34.8,15.5,4.0,27.0,12.7,1.0,94,88,69,30.31,29.86,11,0,0,0.02
2014-3-4,29.7,23.1,12.2,15.0,0.7,-12.0,66,39,24,30.38,30.23,11,4,0,0.11
2014-3-5,36.6,29.1,23.7,19.0,7.8,-24.0,74,46,9,30.29,30.18,12,6,0,0.03
2014-3-6,28.2,22.6,16.2,23.0,15.8,12.0,92,76,64,30.37,30.25,16,8,0,0.00
2014-3-7,43.2,32.1,24.4,39.0,28.7,22.0,98,88,72,30.25,30.02,12,5,0,0.00
2014-3-8,46.4,37.7,33.1,34.0,29.9,26.0,93,75,51,30.04,29.98,24,12,0,0.00
2014-3-9,34.6,27.9,21.8,31.0,24.3,20.0,95,86,66,30.09,29.95,22,10,0,0.00
2014-3-10,50.9,38.3,28.3,31.0,25.1,20.0,87,62,34,30.06,29.82,27,16,0,0.00
2014-3-11,58.5,47.6,39.3,39.0,34.2,31.0,88,62,42,29.81,29.68,27,14,0,0.00
2014-3-12,49.1,39.0,13.8,44.0,32.7,12.0,94,79,55,29.68,29.07,35,13,0,0.27
2014-3-13,14.9,8.2,-0.8,12.0,4.0,-3.0,93,83,63,30.34,29.45,35,16,0,0.00
2014-3-14,46.6,33.5,13.9,27.0,16.5,1.0,72,50,38,30.39,29.98,29,13,0,0.00
2014-3-15,44.6,37.9,33.2,32.0,27.3,21.0,93,68,43,30.08,29.84,35,13,0,0.00
2014-3-16,39.9,31.3,20.8,27.0,23.7,19.0,94,75,50,30.08,29.85,21,8,0,0.00
2014-3-17,22.9,20.3,17.7,22.0,18.8,16.0,94,94,93,30.03,29.82,20,11,0,0.00
2014-3-18,33.2,28.6,21.2,27.0,24.8,20.0,94,86,76,30.17,30.03,12,3,0,0.04
2014-3-19,47.4,38.1,30.2,45.0,31.8,25.0,92,78,72,30.17,29.87,35,12,0,0.04
2014-3-20,39.1,31.3,26.7,32.0,24.3,20.0,94,77,51,30.04,29.85,24,12,0,0.04
2014-3-21,50.4,39.5,29.6,28.0,24.2,19.0,83,57,34,30.12,30.01,23,11,0,0.00
2014-3-22,50.4,43.6,34.7,32.0,23.1,15.0,68,46,27,30.00,29.85,25,12,0,0.00
2014-3-23,34.3,24.9,13.3,27.0,21.7,11.0,93,87,70,30.18,29.95,19,8,0,0.00
2014-3-24,27.9,15.8,5.6,11.0,5.0,0.0,91,67,31,30.30,30.17,14,6,0,0.00
2014-3-25,24.9,18.7,12.9,21.0,16.0,6.0,93,89,57,30.19,29.87,25,5,0,0.01
2014-3-26,18.1,10.5,3.5,13.0,6.8,1.0,92,85,67,30.44,30.00,31,13,0,0.00
2014-3-27,41.0,29.8,13.5,20.0,9.4,-12.0,75,45,16,30.49,30.21,18,8,0,0.00
2014-3-28,35.8,34.7,34.0,21.0,20.1,20.0,57,56,54,30.20,30.15,15,10,0,0.00
2014-3-31,48.7,45.5,42.3,25.0,22.6,20.0,45,41,34,30.29,30.21,5,2,0,0.00
2014-4-1,62.5,52.1,44.2,38.0,28.7,23.0,61,41,29,30.21,29.98,22,10,0,0.00
2014-4-2,62.4,53.8,46.1,46.0,36.1,27.0,92,52,41,30.05,29.98,20,7,0,0.10
2014-4-3,58.6,51.4,47.0,48.0,45.5,42.0,92,81,67,30.03,29.83,23,6,0,0.40
2014-4-4,58.0,51.6,42.7,53.0,48.3,39.0,93,89,79,29.85,29.64,29,12,0,0.14
2014-4-5,41.9,31.3,25.7,39.0,26.5,23.0,94,83,62,30.19,29.70,27,12,0,0.00
2014-4-6,51.5,38.6,25.0,30.0,16.5,-30.0,89,49,5,30.24,30.09,11,4,0,0.00
2014-4-7,47.4,40.8,35.9,39.0,33.5,27.0,92,75,67,30.09,29.57,23,11,0,0.28
2014-4-8,47.4,37.7,32.1,44.0,33.3,26.0,94,84,71,29.76,29.48,25,12,0,0.02
2014-4-9,43.8,36.8,32.6,36.0,29.8,23.0,93,76,61,30.13,29.76,18,7,0,0.01
2014-4-10,58.8,46.0,33.1,33.0,29.1,26.0,74,54,34,30.24,30.09,15,9,0,0.00
2014-4-11,63.6,52.1,45.9,46.0,38.1,28.0,93,62,40,30.10,29.95,27,13,0,0.09
2014-4-12,65.7,53.6,44.6,47.0,44.1,38.0,93,72,47,30.22,30.04,18,6,0,0.00
2014-4-13,73.3,59.4,51.9,49.0,44.5,35.0,79,61,26,30.10,29.93,16,9,0,0.00
2014-4-14,59.1,52.7,50.3,50.0,48.2,42.0,93,85,67,29.91,29.73,20,10,0,0.21
2014-4-15,51.1,34.4,13.8,42.0,29.3,12.0,96,82,70,29.98,29.55,28,12,0,0.79
2014-4-16,39.9,22.3,11.4,29.0,16.8,10.0,94,81,46,30.54,29.98,19,6,0,0.01
2014-4-17,48.8,35.3,22.7,24.0,19.6,12.0,74,55,37,30.58,30.47,13,5,0,0.00
2014-4-18,58.8,47.1,32.6,29.0,22.8,10.0,66,40,27,30.48,30.23,15,6,0,0.00
2014-4-19,54.3,47.1,42.2,37.0,32.8,29.0,71,58,48,30.24,30.15,15,6,0,0.00
2014-4-20,56.3,45.1,36.4,33.0,25.1,19.0,73,48,24,30.33,30.21,20,8,0,0.00
2014-4-21,71.0,57.1,42.9,34.0,25.9,21.0,56,32,19,30.22,29.85,15,5,0,0.00
2014-4-22,55.4,49.3,41.5,49.0,41.0,30.0,93,74,45,29.84,29.62,28,10,0,0.03
2014-4-23,44.2,35.7,30.4,32.0,29.2,27.0,93,78,54,30.05,29.68,26,13,0,0.00
2014-4-24,59.3,44.0,28.6,28.0,13.7,-6.0,92,36,11,30.18,30.00,13,5,0,0.00
2014-4-25,53.2,46.6,37.6,50.0,39.7,29.0,93,78,48,29.98,29.65,30,11,0,0.40
2014-4-26,61.2,48.7,36.7,43.0,37.5,33.0,94,68,44,29.95,29.84,25,12,0,0.00
2014-4-27,66.0,54.7,43.6,43.0,37.2,31.0,83,55,31,30.00,29.90,18,7,0,0.00
2014-4-28,53.8,48.4,42.4,50.0,43.3,39.0,93,83,71,29.96,29.84,14,6,0,0.33
2014-4-29,52.6,46.2,41.9,49.0,38.6,34.0,93,75,72,30.04,29.84,20,8,0,0.28
2014-4-30,55.7,51.5,46.3,49.0,43.8,39.0,84,75,69,30.04,29.81,21,9,0,0.29
2014-5-1,55.3,46.6,38.4,46.0,39.9,33.0,94,78,58,29.86,29.79,23,9,0,0.01
2014-5-2,51.9,41.5,35.5,34.0,32.6,31.0,89,72,49,29.91,29.80,20,10,0,0.00
2014-5-3,54.0,44.6,37.5,38.0,34.8,33.0,90,70,48,29.91,29.82,24,10,0,0.00
2014-5-4,59.8,48.1,41.5,44.0,36.5,29.0,93,66,48,29.93,29.84,36,14,0,0.11
2014-5-5,57.3,45.7,36.8,52.0,35.8,14.0,93,72,26,30.00,29.89,16,6,0,0.21
2014-5-6,66.7,56.3,47.3,49.0,46.1,43.0,93,71,47,29.98,29.85,14,7,0,0.00
2014-5-7,73.5,60.4,50.4,54.0,50.7,44.0,92,72,46,30.07,29.96,16,5,0,0.00
2014-5-8,75.2,64.1,55.7,54.0,48.3,43.0,92,59,33,30.09,30.00,24,10,0,0.00
2014-5-9,74.4,63.9,56.8,54.0,49.5,43.0,89,61,33,30.06,29.88,22,9,0,0.00
2014-5-10,56.8,53.4,47.2,54.0,50.0,44.0,93,88,75,30.03,29.89,20,10,0,0.51
2014-5-11,69.9,58.5,49.0,52.0,43.6,40.0,93,61,34,30.18,30.01,16,8,0,0.00
2014-5-12,69.9,62.6,57.2,63.0,56.0,46.0,91,79,59,30.13,30.08,19,8,0,0.22
2014-5-13,76.2,65.5,56.3,61.0,58.3,53.0,89,78,54,30.10,30.02,13,6,0,0.49
2014-5-14,71.1,62.6,57.9,61.0,58.0,50.0,92,85,67,30.08,29.95,14,5,0,0.18
2014-5-15,57.9,52.6,39.9,50.0,43.8,32.0,81,72,69,29.98,29.84,23,9,0,2.54
2014-5-16,50.8,40.6,35.0,42.0,32.8,28.0,93,74,55,30.03,29.84,22,8,0,0.08
2014-5-17,48.2,38.0,30.7,33.0,29.8,26.0,93,74,49,30.24,30.02,21,10,0,0.00
2014-5-18,52.6,40.8,31.6,33.0,30.8,27.0,93,70,38,30.29,30.24,12,5,0,0.00
2014-5-19,60.0,47.9,36.6,35.0,31.6,28.0,75,55,35,30.34,30.22,13,4,0,0.00
2014-5-20,66.2,55.0,46.5,52.0,40.2,29.0,81,59,32,30.22,30.03,15,7,0,0.00
2014-5-21,61.9,58.0,55.5,57.0,53.3,48.0,92,84,70,30.03,29.90,20,10,0,0.08
2014-5-22,64.7,56.3,52.8,57.0,49.3,44.0,93,78,68,29.94,29.87,22,12,0,0.00
2014-5-23,60.1,51.5,44.0,49.0,44.2,41.0,92,77,54,30.05,29.92,25,8,0,0.00
2014-5-24,58.4,48.7,40.3,45.0,41.6,35.0,93,77,60,30.21,30.04,14,4,0,0.00
2014-5-25,69.0,58.2,48.5,48.0,45.1,43.0,86,64,43,30.20,30.10,9,3,0,0.00
2014-5-26,74.0,61.7,54.0,55.0,48.8,43.0,88,64,38,30.13,30.02,16,7,0,0.00
2014-5-27,70.7,60.7,56.7,62.0,55.3,48.0,92,83,68,30.02,29.91,19,10,0,0.22
2014-5-28,71.2,61.0,55.4,61.0,53.5,47.0,92,77,63,30.02,29.92,18,8,0,0.20
2014-5-29,67.2,59.1,55.5,61.0,54.7,48.0,92,85,71,30.05,29.97,15,6,0,0.17
2014-5-30,69.2,59.7,52.4,56.0,49.7,45.0,90,70,53,30.10,30.01,11,5,0,0.01
2014-5-31,69.0,58.0,49.9,52.0,47.2,43.0,88,69,42,30.17,30.10,14,6,0,0.00
2014-6-1,68.4,57.0,48.8,54.0,49.7,44.0,92,78,57,30.24,30.15,10,4,0,0.00
2014-6-2,69.4,59.4,50.0,60.0,54.5,48.0,93,84,66,30.19,30.05,13,7,0,0.00
2014-6-3,68.3,59.8,57.4,61.0,54.2,48.0,93,82,69,30.05,29.91,15,9,0,0.12
2014-6-4,72.4,61.1,55.8,60.0,51.6,46.0,92,72,52,29.92,29.63,18,8,0,0.38
2014-6-5,60.3,55.1,49.5,53.0,47.5,43.0,92,76,68,29.88,29.59,28,9,0,0.45
2014-6-6,67.0,55.5,46.6,48.0,44.9,37.0,93,70,45,30.02,29.88,12,4,0,0.00
2014-6-7,71.7,60.6,50.8,56.0,51.8,46.0,90,74,53,30.03,29.93,11,5,0,0.00
2014-6-8,69.7,60.3,56.1,63.0,53.1,44.0,90,77,63,29.93,29.76,15,8,0,0.19
2014-6-9,68.4,59.8,52.2,59.0,51.6,41.0,92,75,62,29.89,29.83,14,5,0,0.00
2014-6-10,73.8,64.5,56.6,61.0,56.9,47.0,92,77,59,29.92,29.86,20,6,0,0.14
2014-6-11,72.9,64.1,56.1,63.0,56.5,47.0,91,77,63,29.93,29.79,13,6,0,0.30
2014-6-12,70.7,59.8,56.5,62.0,51.1,44.0,92,74,60,29.88,29.79,22,6,0,0.28
2014-6-13,70.2,58.4,52.9,59.0,48.0,41.0,91,69,62,29.90,29.77,19,8,0,0.10
2014-6-14,63.2,53.3,46.3,50.0,45.5,40.0,93,76,52,30.13,29.89,19,6,0,0.00
2014-6-15,74.8,63.3,53.3,56.0,50.4,43.0,81,64,42,30.17,30.08,16,7,0,0.00
2014-6-16,77.9,67.2,60.8,62.0,58.2,53.0,91,75,43,30.12,30.04,15,7,0,0.00
2014-6-17,77.9,68.4,61.6,64.0,60.8,58.0,90,77,57,30.10,30.00,23,8,0,0.00
2014-6-18,77.7,68.0,62.5,64.0,61.5,58.0,91,80,58,30.04,29.99,24,11,0,0.00
2014-6-19,71.3,63.3,59.6,63.0,57.4,48.0,91,82,65,30.03,29.96,23,10,0,0.30
2014-6-20,75.8,63.5,58.0,63.0,54.2,46.0,92,72,58,30.03,29.89,12,6,0,0.37
2014-6-21,68.9,61.6,58.7,63.0,53.0,46.0,92,74,60,29.89,29.82,18,7,0,0.07
2014-6-22,74.6,62.3,55.9,61.0,55.8,49.0,92,80,53,29.96,29.83,10,4,0,0.06
2014-6-23,72.6,62.3,56.0,64.0,55.2,44.0,92,78,64,30.07,29.94,11,4,0,0.00
2014-6-24,74.9,64.2,58.0,65.0,56.5,45.0,92,77,62,30.08,29.94,16,7,0,0.06
2014-6-25,73.9,62.7,59.1,64.0,55.6,47.0,92,78,62,29.95,29.85,18,8,0,0.14
2014-6-26,71.3,61.2,58.2,62.0,53.5,45.0,92,77,61,30.02,29.91,16,6,0,0.07
2014-6-27,74.6,64.6,57.8,62.0,58.1,53.0,94,80,55,30.10,30.02,6,1,0,0.01
2014-6-28,70.6,63.5,59.5,63.0,60.6,59.0,98,90,74,30.18,30.08,4,0,0,0.00
2014-6-29,64.1,60.6,58.0,62.0,59.6,58.0,98,96,90,30.17,30.08,7,1,0,0.01
2014-6-30,73.3,65.1,59.7,67.0,62.2,59.0,98,91,68,30.09,29.91,7,1,0,0.00
2014-7-1,75.9,67.9,60.9,69.0,64.2,60.0,98,88,73,29.93,29.83,8,2,0,0.00
2014-7-2,77.4,69.2,63.7,67.0,64.2,62.0,96,85,65,29.90,29.81,7,1,0,0.00
2014-7-3,71.9,63.1,53.9,66.0,60.7,51.0,97,91,80,29.98,29.87,5,0,0,0.00
2014-7-4,60.9,54.6,50.7,52.0,49.5,45.0,97,83,63,30.23,29.98,7,1,0,0.00
2014-7-5,70.8,56.2,43.2,48.0,43.7,37.0,88,65,39,30.31,30.19,13,3,0,0.00
2014-7-6,72.2,61.9,54.7,56.0,51.9,45.0,82,71,51,30.19,29.98,15,8,0,0.00
2014-7-7,74.6,65.0,58.4,60.0,56.9,53.0,89,75,58,29.98,29.84,24,12,0,0.00
2014-7-8,73.9,64.5,59.5,63.0,58.1,50.0,92,80,64,29.89,29.75,22,11,0,0.37
2014-7-9,70.3,62.1,59.1,62.0,53.3,46.0,92,73,62,29.99,29.83,16,8,0,0.01
2014-7-10,72.8,63.4,57.8,59.0,56.1,53.0,92,78,51,30.08,29.98,10,3,0,0.01
2014-7-11,77.7,66.1,58.0,59.0,54.9,50.0,92,69,39,30.16,30.07,9,2,0,0.00
2014-7-12,76.4,66.8,59.4,62.0,58.2,51.0,93,75,52,30.16,30.05,12,4,0,0.00
2014-7-13,76.9,68.1,61.8,64.0,60.6,56.0,92,78,58,30.05,29.91,18,8,0,0.00
2014-7-14,72.1,65.7,61.3,65.0,61.1,53.0,92,85,73,29.91,29.80,21,9,0,0.00
2014-7-15,62.6,59.1,53.2,60.0,51.9,47.0,93,78,64,29.83,29.75,15,8,0,0.25
2014-7-16,62.0,53.1,46.7,51.0,46.8,43.0,94,80,58,30.00,29.82,15,6,0,0.01
2014-7-17,64.9,54.6,47.4,51.0,46.7,43.0,93,77,48,30.16,29.98,10,5,0,0.00
2014-7-18,65.9,56.9,52.1,57.0,51.8,47.0,93,83,69,30.20,30.15,11,6,0,0.14
2014-7-19,55.1,54.0,53.0,52.0,46.2,42.0,94,75,66,30.17,30.11,16,7,0,0.24
2014-7-20,69.9,59.0,52.6,62.0,53.5,42.0,93,82,66,30.12,30.06,9,3,0,0.00
2014-7-21,74.4,63.7,58.3,64.0,56.3,47.0,93,77,64,30.15,30.07,9,3,0,0.00
2014-7-22,77.7,66.5,59.2,65.0,59.6,49.0,93,79,60,30.14,30.03,10,4,0,0.04
2014-7-23,78.3,66.4,61.4,67.0,61.5,57.0,93,85,62,30.03,29.86,13,7,0,0.23
2014-7-24,63.8,58.2,52.4,62.0,51.7,45.0,93,79,64,29.98,29.82,11,4,0,0.77
2014-7-25,71.1,59.7,50.8,59.0,53.2,47.0,94,80,61,30.08,29.98,11,3,0,0.01
2014-7-26,78.4,64.4,56.0,60.0,55.1,50.0,93,74,37,29.99,29.84,16,6,0,0.02
2014-7-27,71.4,63.1,58.9,64.0,57.7,48.0,93,83,66,29.89,29.66,21,11,0,0.57
2014-7-28,62.2,53.7,49.1,60.0,47.9,40.0,94,81,67,29.91,29.63,27,12,0,0.24
2014-7-29,56.0,49.6,46.6,51.0,43.4,37.0,94,80,69,30.06,29.88,14,6,0,0.03
2014-7-30,64.1,53.2,46.3,53.0,46.9,38.0,93,80,66,30.12,30.05,12,5,0,0.01
2014-7-31,70.0,60.3,51.9,56.0,51.2,47.0,94,74,44,30.12,30.07,14,6,0,0.00
2014-8-1,61.0,56.9,52.6,57.0,53.9,47.0,93,90,79,30.12,30.07,11,5,0,0.02
2014-8-2,69.5,58.8,52.3,61.0,51.9,43.0,93,79,66,30.14,30.02,12,4,0,0.25
2014-8-3,67.5,57.3,52.3,57.0,52.1,43.0,94,83,67,30.11,30.03,11,5,0,0.01
2014-8-4,69.0,59.5,52.6,60.0,54.5,45.0,93,84,70,30.13,30.06,8,3,0,0.21
2014-8-5,73.2,63.0,57.8,60.0,57.4,52.0,94,83,61,30.09,29.96,13,5,0,0.04
2014-8-6,62.6,58.4,56.8,61.0,54.7,48.0,94,88,68,29.97,29.93,11,6,0,0.31
2014-8-7,68.6,59.5,54.0,58.0,52.9,49.0,94,79,60,30.04,29.95,12,4,0,0.00
2014-8-8,66.3,58.9,54.3,61.0,55.2,51.0,93,87,79,30.10,30.03,10,4,0,0.00
2014-8-9,59.3,57.8,55.8,55.0,47.1,44.0,91,68,63,30.09,30.03,11,5,0,0.01
2014-8-10,60.0,57.3,55.7,48.0,45.5,44.0,66,65,64,30.13,30.06,11,4,0,0.02
2014-8-11,57.7,56.1,54.2,47.0,44.8,43.0,67,66,65,30.10,29.98,14,7,0,0.38
2014-8-12,70.4,60.8,55.2,66.0,52.8,47.0,93,75,61,29.97,29.74,20,8,0,0.46
2014-8-13,55.6,52.0,50.0,52.0,42.6,39.0,94,71,65,30.00,29.78,21,11,0,0.02
2014-8-14,61.4,53.3,48.7,53.0,47.6,40.0,93,81,65,30.02,29.95,23,9,0,0.00
2014-8-15,65.7,54.5,47.5,50.0,47.7,46.0,93,79,51,30.03,29.98,16,8,0,0.00
2014-8-16,70.0,58.5,49.4,53.0,48.5,42.0,90,72,39,30.03,29.98,15,8,0,0.00
2014-8-17,66.9,59.6,56.0,63.0,53.3,44.0,92,80,61,29.99,29.95,23,9,0,0.04
2014-8-18,64.8,61.0,59.3,63.0,56.7,49.0,92,86,68,29.95,29.76,10,3,0,0.20
2014-8-19,74.9,64.4,59.7,66.0,58.0,48.0,92,80,63,29.88,29.79,9,2,0,0.00
2014-8-20,74.7,65.5,59.6,65.0,57.6,48.0,93,76,62,29.99,29.86,14,6,0,0.01
2014-8-21,68.1,62.4,59.2,63.0,54.5,47.0,93,76,64,30.05,29.97,18,8,0,0.09
2014-8-22,69.2,62.8,59.6,66.0,52.9,47.0,93,71,62,30.02,29.93,20,8,0,0.33
2014-8-23,73.3,64.3,60.8,66.0,55.6,48.0,93,74,62,29.98,29.90,11,5,0,0.07
2014-8-24,62.3,58.0,55.2,60.0,47.6,44.0,93,69,63,30.12,29.96,13,6,0,0.01
2014-8-25,66.2,57.4,50.7,56.0,50.0,40.0,93,77,64,30.17,30.10,14,5,0,0.00
2014-8-26,75.3,61.8,50.6,54.0,48.2,37.0,93,64,39,30.19,30.08,13,4,0,0.00
2014-8-27,75.5,65.1,58.6,65.0,59.1,52.0,92,81,65,30.08,29.95,13,5,0,0.00
2014-8-28,72.3,63.3,57.4,60.0,53.6,47.0,92,71,53,30.05,29.93,16,7,0,0.00
2014-8-29,77.1,64.2,56.5,63.0,56.6,47.0,93,77,59,30.11,30.03,9,4,0,0.00
2014-8-30,79.0,66.9,59.3,66.0,57.0,48.0,93,72,51,30.15,30.04,16,7,0,0.00
2014-8-31,75.3,64.5,61.4,64.0,60.0,53.0,93,85,69,30.07,29.99,19,8,0,0.11
2014-9-1,74.1,64.6,61.1,65.0,57.4,50.0,93,78,63,30.04,29.97,20,10,0,0.14
2014-9-2,76.8,65.1,61.0,65.0,58.7,52.0,93,80,61,30.00,29.90,20,10,0,0.18
2014-9-3,73.6,64.4,59.1,61.0,55.3,49.0,93,73,51,30.09,29.94,14,5,0,0.01
2014-9-4,76.1,66.6,61.0,66.0,61.4,53.0,93,83,70,30.10,30.03,11,5,0,0.06
2014-9-5,75.7,67.0,61.1,66.0,62.6,57.0,94,86,64,30.13,30.01,9,5,0,0.03
2014-9-6,75.0,64.1,59.0,66.0,58.1,51.0,94,81,66,30.03,29.89,14,7,0,0.08
2014-9-7,64.9,57.7,51.9,61.0,51.5,45.0,93,80,69,30.12,29.95,16,4,0,0.01
2014-9-8,54.2,52.0,48.1,53.0,46.8,43.0,94,82,70,30.19,30.11,18,11,0,0.06
2014-9-9,70.6,59.2,49.8,61.0,53.5,41.0,94,82,70,30.18,30.05,15,4,0,0.00
2014-9-10,68.0,59.9,55.8,62.0,53.3,46.0,94,79,68,30.08,29.94,11,4,0,0.01
2014-9-11,63.0,60.8,58.6,60.0,52.9,48.0,93,76,67,30.00,29.88,21,10,0,0.05
2014-9-12,71.8,60.5,54.5,61.0,52.2,44.0,94,75,63,30.08,30.00,12,4,0,0.00
2014-9-13,56.9,51.7,45.2,48.0,44.5,41.0,95,77,68,30.23,30.00,15,6,0,0.18
2014-9-14,52.3,47.4,39.2,50.0,44.3,36.0,94,89,71,30.30,30.21,11,5,0,0.00
2014-9-15,66.5,54.4,44.6,56.0,43.2,17.0,94,70,18,30.24,30.03,15,7,0,0.00
2014-9-16,52.3,49.9,45.6,51.0,42.2,39.0,94,75,69,30.06,29.99,31,7,0,0.04
2014-9-17,61.0,51.3,44.8,51.0,46.6,37.0,95,84,68,30.06,29.96,9,2,0,0.01
2014-9-18,63.3,52.9,48.5,51.0,47.0,41.0,94,81,61,30.09,29.94,9,4,0,0.01
2014-9-19,52.3,50.4,48.9,48.0,45.3,40.0,94,83,70,30.26,30.09,14,6,0,0.00
2014-9-20,69.0,57.0,49.8,57.0,49.8,41.0,93,77,65,30.26,30.01,13,6,0,0.00
2014-9-21,65.3,57.1,48.3,61.0,54.2,46.0,94,90,74,30.03,29.70,27,12,0,0.07
2014-9-22,49.1,44.0,40.6,45.0,39.9,35.0,95,86,73,30.27,29.81,21,8,0,0.03
2014-9-23,61.2,49.3,40.6,43.0,34.7,13.0,95,61,25,30.37,30.26,13,3,0,0.00
2014-9-24,57.9,49.6,45.0,46.0,37.4,32.0,93,64,46,30.41,30.31,27,14,0,0.00
2014-9-25,64.3,55.2,48.9,57.0,48.8,39.0,94,79,68,30.34,30.21,18,6,0,0.00
2014-9-26,69.9,58.0,52.4,55.0,51.6,47.0,93,80,56,30.22,30.16,10,3,0,0.01
2014-9-27,65.7,56.4,50.1,50.0,46.5,39.0,92,72,42,30.22,30.16,10,4,0,0.00
2014-9-28,68.4,57.7,50.9,53.0,46.2,34.0,93,69,33,30.18,30.04,11,4,0,0.00
2014-9-29,65.9,56.8,52.9,55.0,51.3,45.0,94,82,55,30.04,29.92,11,4,0,0.03
2014-9-30,68.1,58.7,53.3,54.0,49.4,44.0,94,73,44,29.92,29.84,13,6,0,0.02
2014-10-1,63.3,56.0,52.4,55.0,51.7,50.0,94,86,66,30.02,29.87,16,7,0,0.00
2014-10-2,68.8,57.9,50.8,54.0,49.8,46.0,94,76,49,30.09,30.00,15,6,0,0.01
2014-10-3,61.4,55.7,52.2,56.0,49.6,45.0,94,80,70,30.00,29.66,20,8,0,0.20
2014-10-4,51.7,37.2,30.5,49.0,31.9,26.0,94,81,60,29.83,29.61,26,13,0,0.01
2014-10-5,45.8,36.2,28.1,30.0,27.7,22.0,95,74,42,30.03,29.82,21,9,0,0.00
2014-10-6,58.0,46.4,39.5,47.0,39.6,31.0,93,78,59,30.03,29.91,22,9,0,0.57
2014-10-7,52.2,45.5,40.3,48.0,42.2,38.0,95,88,76,30.03,29.88,22,10,0,0.46
2014-10-8,54.4,47.5,43.7,46.0,41.3,37.0,94,79,62,30.05,29.91,24,12,0,0.05
2014-10-9,56.9,47.2,41.3,42.0,38.8,34.0,89,74,42,30.16,30.05,19,9,0,0.00
2014-10-10,54.1,52.2,48.8,50.0,45.1,43.0,94,77,72,30.12,29.97,11,5,0,0.25
2014-10-11,54.9,50.4,44.1,46.0,42.2,37.0,78,74,72,30.09,29.87,19,4,0,0.22
2014-10-12,47.9,43.9,40.9,44.0,39.0,35.0,95,83,75,30.25,30.09,15,6,0,0.04
2014-10-13,57.6,52.9,46.0,55.0,45.5,39.0,93,76,71,30.26,30.13,21,8,0,0.22
2014-10-14,60.1,57.6,55.3,58.0,51.2,46.0,95,79,72,30.12,29.76,23,11,0,0.77
2014-10-15,59.1,51.0,44.4,50.0,45.8,41.0,95,83,64,29.79,29.69,23,3,0,1.65
2014-10-16,47.6,44.1,41.8,46.0,39.8,36.0,95,85,77,29.82,29.69,13,6,0,0.20
2014-10-17,61.3,49.3,41.5,49.0,41.0,34.0,93,74,48,29.87,29.72,24,12,0,0.03
2014-10-18,50.3,49.5,48.9,47.0,45.8,45.0,89,87,86,29.73,29.69,23,12,0,0.00
2014-10-19,44.5,36.6,32.3,37.0,20.2,-19.0,95,62,6,30.11,0.00,18,8,0,0.07
2014-10-20,52.3,45.0,40.7,40.0,20.5,-19.0,94,48,6,30.10,29.91,18,8,0,0.01
2014-10-21,43.1,39.5,34.6,40.0,33.9,29.0,93,80,76,29.99,29.86,19,8,0,0.18
2014-10-22,36.7,35.1,33.8,30.0,29.0,28.0,79,78,78,30.17,29.97,18,7,0,0.10
2014-10-23,37.4,35.1,33.2,32.0,29.5,28.0,80,80,79,30.16,30.11,21,8,0,0.02
2014-10-24,52.5,41.2,36.1,40.0,34.0,31.0,94,76,50,30.15,30.05,16,7,0,0.00
2014-10-25,54.5,45.2,38.2,47.0,39.4,35.0,95,81,56,30.06,29.83,28,11,0,0.00
2014-10-26,50.6,44.4,38.2,48.0,28.2,13.0,94,58,23,29.99,29.78,36,15,0,0.00
2014-10-27,68.5,55.4,42.4,46.0,30.6,7.0,60,41,14,30.14,29.99,22,11,0,0.00
2014-10-28,66.9,60.8,56.2,50.0,44.1,36.0,69,55,40,30.03,29.89,24,11,0,0.00
2014-10-29,55.7,43.2,37.5,50.0,38.5,33.0,94,84,70,29.99,29.86,18,8,0,0.21
2014-10-30,38.0,31.2,28.9,34.0,28.9,27.0,94,88,77,30.06,29.98,15,4,0,0.21
2014-10-31,33.4,31.2,29.4,31.0,29.1,27.0,94,92,88,30.05,29.84,10,2,0,0.02
2014-11-1,29.9,28.5,22.5,27.0,26.3,21.0,95,91,89,30.07,29.82,9,3,0,0.02
2014-11-2,25.1,21.7,18.0,24.0,20.5,17.0,95,95,94,30.45,30.05,12,5,0,0.01
2014-11-3,48.1,37.6,23.3,22.0,9.3,-3.0,94,39,12,30.54,30.39,22,10,0,0.05
2014-11-4,61.8,51.2,44.4,28.0,13.5,-2.0,41,23,10,30.39,30.11,22,11,0,0.05
2014-11-5,48.7,44.3,40.7,43.0,36.7,25.0,94,77,43,30.18,30.05,27,8,0,0.04
2014-11-6,47.3,39.1,31.1,43.0,33.8,27.0,94,82,65,30.04,29.71,31,12,0,0.12
2014-11-7,31.1,26.6,20.4,27.0,24.7,19.0,95,92,84,30.09,29.75,24,10,0,0.12
2014-11-8,38.8,31.4,20.9,30.0,24.1,20.0,95,76,53,30.10,29.99,15,8,0,0.01
2014-11-9,44.0,36.4,30.3,33.0,29.2,24.0,94,77,51,30.06,29.95,23,8,0,0.01
2014-11-10,54.6,45.5,39.9,37.0,27.8,21.0,85,52,35,30.14,30.02,19,5,0,0.00
2014-11-12,49.9,35.3,24.6,43.0,31.4,15.0,94,86,47,30.09,29.84,16,6,0,0.00
2014-11-13,33.6,23.9,14.4,27.0,21.2,13.0,94,90,50,30.13,30.06,12,6,0,0.00
2014-11-14,14.7,11.9,9.9,13.0,10.3,8.0,94,92,92,30.43,30.11,10,4,0,0.00
2014-11-15,24.7,17.6,10.7,23.0,15.3,9.0,95,90,78,30.55,30.39,10,2,0,0.03
2014-11-16,37.0,28.6,21.5,32.0,21.9,13.0,94,76,64,30.41,30.00,15,8,0,0.22
2014-11-17,42.5,38.5,33.3,35.0,31.9,28.0,91,77,75,29.99,29.59,22,12,0,0.10
2014-11-21,25.4,18.6,15.5,6.0,-0.9,-25.0,65,47,10,30.63,30.53,12,8,0,0.00
2014-11-22,46.6,38.4,33.0,33.0,6.6,-25.0,62,34,7,30.61,30.34,21,10,0,0.00
2014-11-23,44.2,44.2,44.2,36.0,36.0,36.0,72,72,72,29.81,29.79,14,13,0,0.18
2014-11-25,41.0,33.7,28.3,27.0,23.6,20.0,92,68,44,30.15,29.91,19,8,0,0.00
2014-11-26,34.1,28.6,26.4,28.0,24.1,20.0,93,81,57,30.16,29.92,10,3,0,0.01
2014-11-27,23.9,20.0,15.2,23.0,18.7,14.0,94,94,93,30.25,29.99,23,6,0,0.00
2014-11-28,21.4,14.1,10.7,20.0,12.5,9.0,95,93,85,30.39,30.24,18,6,0,0.00
2014-11-29,38.3,32.3,23.0,36.0,27.6,21.0,94,83,70,30.37,30.15,26,10,0,0.05
2014-11-30,47.5,44.6,38.9,45.0,41.6,37.0,94,89,82,30.18,30.09,28,16,0,0.05
2014-12-1,47.9,43.9,32.0,46.0,38.1,26.0,94,80,71,30.33,30.14,30,11,0,0.17
2014-12-2,42.9,35.7,28.3,36.0,29.3,24.0,88,77,74,30.37,30.25,19,5,0,0.23
2014-12-3,44.6,37.0,22.5,37.0,31.4,21.0,94,81,75,30.25,30.07,28,13,0,0.18
2014-12-4,41.9,31.2,21.4,32.0,20.5,-8.0,95,72,12,30.45,30.25,16,5,0,0.12
2014-12-5,45.9,42.3,35.0,38.0,34.7,29.0,83,74,73,30.40,30.24,13,8,0,0.20
2014-12-6,46.9,40.4,28.1,39.0,33.7,25.0,91,77,73,30.24,29.97,21,9,0,0.53
2014-12-7,32.3,26.3,20.3,26.0,19.1,8.0,95,76,45,30.51,30.24,30,12,0,0.00
2014-12-8,29.8,25.6,21.6,27.0,16.9,2.0,94,73,36,30.50,30.25,25,12,0,0.00
2014-12-9,32.9,29.3,26.8,31.0,27.2,25.0,95,91,82,30.24,30.00,12,6,0,0.01
2014-12-10,27.3,22.0,15.0,26.0,20.7,14.0,95,94,93,30.04,29.95,12,6,0,0.01
2014-12-11,20.3,15.4,12.7,19.0,14.2,11.0,95,94,93,30.21,29.94,13,5,0,0.00
2014-12-12,28.5,20.9,15.1,22.0,16.7,14.0,95,84,69,30.34,30.19,24,10,0,0.00
2014-12-13,29.8,24.3,20.6,26.0,20.3,17.0,95,85,62,30.29,30.17,23,10,0,0.00
2014-12-14,32.1,28.9,25.2,31.0,26.7,24.0,94,91,85,30.22,30.16,8,1,0,0.00
2014-12-15,51.1,42.4,29.7,32.0,25.7,14.0,94,55,30,30.17,29.98,13,5,0,0.02
2014-12-16,46.8,39.5,31.4,41.0,32.1,24.0,94,76,46,29.98,29.75,22,10,0,0.31
2014-12-17,31.2,25.0,18.6,27.0,23.2,17.0,95,92,82,30.12,29.90,19,8,0,0.00
2014-12-18,28.3,19.7,15.5,27.0,18.4,14.0,95,94,92,30.25,30.10,11,2,0,0.00
2014-12-19,24.9,18.6,15.5,24.0,17.4,14.0,95,94,94,30.32,30.18,0,0,0,0.00
2014-12-20,28.0,24.6,22.5,27.0,23.4,21.0,95,95,94,30.31,30.24,0,0,0,0.00
2014-12-21,32.5,26.3,23.1,31.0,25.0,22.0,95,94,93,30.34,30.24,10,1,0,0.03
2014-12-22,38.3,32.4,25.5,32.0,27.8,24.0,94,83,76,30.26,30.06,14,5,0,0.01
2014-12-25,27.0,25.0,24.5,25.0,23.7,23.0,95,92,93,30.29,29.89,29,14,0,0.00
2014-12-26,44.4,41.8,36.9,20.0,16.8,13.0,48,37,30,30.38,30.32,19,11,0,0.00
2014-12-27,41.1,39.9,39.2,11.0,8.7,5.0,30,28,23,30.31,30.24,19,11,0,0.00
2014-12-28,39.3,38.1,32.0,35.0,32.8,26.0,86,81,77,30.05,29.93,20,12,0,0.08
2014-12-29,33.1,31.4,30.1,28.0,26.6,26.0,87,82,78,30.15,30.04,11,4,0,0.00
2014-12-30,27.4,22.4,19.4,23.0,20.5,18.0,95,92,71,30.39,30.36,6,1,0,0.00
2014-12-31,21.3,18.9,15.0,11.0,7.9,5.0,71,62,56,30.45,30.39,3,0,0,0.00
2015-1-1,26.0,20.7,12.5,20.0,15.3,7.0,88,79,70,30.35,30.23,25,7,0,0.00
2015-1-2,21.6,20.2,18.6,17.0,17.0,17.0,93,87,83,30.28,30.24,21,7,0,0.00